Terminal Aerodrome Forecast
Issued by NWS

Home | Current Version | Previous Version | Graphics & Text | Print | Product List | Glossary On
Versions: 1 2 3 4 5 6 7 8 9 10 11 12 13 14 15 16 17 18
548
FTUS43 KGRB 282321
TAFMTW
TAF
KMTW 282321Z 2900/2924 02009KT P6SM VCSH SCT025 BKN070
     FM290300 02008KT P6SM BKN050
     FM290900 01008KT P6SM SCT025 OVC050 PROB30 2909/2915 5SM -SHRA
      BR BKN025
     FM291500 06007KT P6SM VCSH BKN050
     FM291900 06010KT P6SM SCT050 BKN100=

USA.gov is the U.S. government's official web portal to all federal, state and local government web resources and services.